Time;durP1;ratioP1;P1;durP2;ratioP2;P2;SDS_P1;SDS_P2;PMS_P1;PMS_P2;Temp;Humidity;BMP_temperature;BMP_pressure;BME280_temperature;BME280_humidity;BME280_pressure;Samples;Min_cycle;Max_cycle;Signal;HPM_P1;HPM_P2
2024/01/25 00:00:23;;;;;;;16.00;5.10;;;8.40;99.90;;;;;;5094114;28;20657;-67
2024/01/25 00:02:49;;;;;;;21.05;4.50;;;8.40;99.90;;;;;;5094103;28;20605;-67
2024/01/25 00:05:16;;;;;;;16.42;4.30;;;8.30;99.90;;;;;;5094678;28;20200;-66
2024/01/25 00:07:46;;;;;;;20.88;5.05;;;8.40;99.90;;;;;;5095110;28;20615;-66
2024/01/25 00:10:15;;;;;;;15.43;4.32;;;8.30;99.90;;;;;;5094943;28;20208;-66
2024/01/25 00:12:42;;;;;;;14.40;4.78;;;8.30;99.90;;;;;;5094095;28;20220;-67
2024/01/25 00:15:10;;;;;;;18.25;4.68;;;8.30;99.90;;;;;;5094422;28;20250;-65
2024/01/25 00:17:36;;;;;;;17.80;4.25;;;8.30;99.90;;;;;;5093818;28;20216;-67
2024/01/25 00:20:05;;;;;;;16.92;4.07;;;8.30;99.90;;;;;;5093917;28;20204;-66
2024/01/25 00:22:31;;;;;;;17.88;4.60;;;8.30;99.90;;;;;;5093220;28;20274;-65
2024/01/25 00:24:59;;;;;;;16.67;3.78;;;8.30;99.90;;;;;;5093395;28;20242;-65
2024/01/25 00:27:27;;;;;;;17.85;4.97;;;8.30;99.90;;;;;;5093893;28;20204;-65
2024/01/25 00:29:54;;;;;;;17.25;4.38;;;8.30;99.90;;;;;;5097871;28;20199;-65
2024/01/25 00:32:21;;;;;;;12.43;4.05;;;8.30;99.90;;;;;;5098067;28;20227;-65
2024/01/25 00:34:48;;;;;;;17.02;5.05;;;8.30;99.90;;;;;;5097565;28;20207;-66
2024/01/25 00:37:16;;;;;;;17.23;4.65;;;8.30;99.90;;;;;;5097368;28;20235;-66
2024/01/25 00:39:43;;;;;;;21.70;4.30;;;8.20;99.90;;;;;;5097540;28;20595;-66
2024/01/25 00:42:13;;;;;;;14.55;3.28;;;8.30;99.90;;;;;;5097671;28;20278;-64
2024/01/25 00:44:42;;;;;;;16.50;3.58;;;8.30;99.90;;;;;;5098200;28;20199;-64
2024/01/25 00:47:10;;;;;;;15.35;4.20;;;8.30;99.90;;;;;;5097390;28;20199;-64
2024/01/25 00:49:37;;;;;;;19.35;4.18;;;8.20;99.90;;;;;;5097541;28;20277;-65
2024/01/25 00:52:05;;;;;;;19.02;4.35;;;8.20;99.90;;;;;;5097168;28;20228;-65
2024/01/25 00:54:32;;;;;;;18.42;4.05;;;8.20;99.90;;;;;;5096843;28;20232;-64
2024/01/25 00:57:00;;;;;;;26.05;4.65;;;8.30;99.90;;;;;;5096875;28;20287;-66
2024/01/25 00:59:27;;;;;;;23.65;4.65;;;8.30;99.90;;;;;;5096804;28;20751;-65
2024/01/25 01:01:59;;;;;;;17.42;4.47;;;8.30;99.90;;;;;;5096567;28;20232;-65
2024/01/25 01:04:26;;;;;;;18.02;4.57;;;8.30;99.90;;;;;;5096288;28;20184;-65
2024/01/25 01:06:54;;;;;;;15.20;3.75;;;8.20;99.90;;;;;;5096622;28;20196;-65
2024/01/25 01:09:21;;;;;;;19.27;3.95;;;8.20;99.90;;;;;;5096421;28;20232;-65
2024/01/25 01:11:50;;;;;;;18.75;5.13;;;8.20;99.90;;;;;;5096249;28;20285;-65
2024/01/25 01:14:17;;;;;;;10.30;4.68;;;8.20;99.90;;;;;;5096346;28;20212;-65
2024/01/25 01:16:44;;;;;;;15.80;3.00;;;8.20;99.90;;;;;;5096210;28;20732;-65
2024/01/25 01:19:12;;;;;;;11.32;3.45;;;8.20;99.90;;;;;;5096074;28;20597;-65
2024/01/25 01:21:43;;;;;;;9.70;3.90;;;8.10;99.90;;;;;;5096401;28;20220;-65
2024/01/25 01:24:10;;;;;;;10.32;4.43;;;8.10;99.90;;;;;;5096764;28;20192;-64
2024/01/25 01:26:37;;;;;;;15.48;3.65;;;8.10;99.90;;;;;;5096645;28;20231;-63
2024/01/25 01:29:04;;;;;;;15.00;4.22;;;8.00;99.90;;;;;;5096185;28;20236;-65
2024/01/25 01:31:31;;;;;;;10.80;4.35;;;7.90;99.90;;;;;;5096730;28;20656;-65
2024/01/25 01:33:58;;;;;;;12.32;5.25;;;7.90;99.90;;;;;;5096069;28;20239;-65
2024/01/25 01:36:27;;;;;;;15.02;4.03;;;7.90;99.90;;;;;;5096683;28;20196;-65
2024/01/25 01:38:54;;;;;;;16.40;4.10;;;7.80;99.90;;;;;;5095820;28;20748;-66
2024/01/25 01:41:21;;;;;;;18.33;4.20;;;7.80;99.90;;;;;;5095362;28;20256;-65
2024/01/25 01:43:48;;;;;;;16.27;4.43;;;7.80;99.90;;;;;;5095836;28;20674;-65
2024/01/25 01:46:28;;;;;;;22.55;4.88;;;7.80;99.90;;;;;;5095703;28;20208;-65
2024/01/25 01:48:55;;;;;;;11.20;4.32;;;7.80;99.90;;;;;;5095842;28;20208;-65
2024/01/25 01:51:22;;;;;;;21.42;4.80;;;7.70;99.90;;;;;;5095550;28;20258;-63
2024/01/25 01:53:51;;;;;;;16.25;4.68;;;7.70;99.90;;;;;;5095924;28;20200;-64
2024/01/25 01:56:18;;;;;;;13.70;4.90;;;7.70;99.90;;;;;;5095801;28;20236;-65
2024/01/25 01:58:46;;;;;;;14.50;3.80;;;7.70;99.90;;;;;;5095418;28;20746;-65
2024/01/25 02:01:14;;;;;;;15.90;4.22;;;7.70;99.90;;;;;;5095240;28;20251;-64
2024/01/25 02:03:40;;;;;;;17.98;4.00;;;7.60;99.90;;;;;;5095545;28;20642;-64
2024/01/25 02:06:07;;;;;;;15.30;5.03;;;7.60;99.90;;;;;;5095724;28;20254;-63
2024/01/25 02:08:34;;;;;;;17.92;4.15;;;7.60;99.90;;;;;;5096601;28;20434;-64
2024/01/25 02:11:03;;;;;;;16.95;5.10;;;7.60;99.90;;;;;;5097030;28;20638;-65
2024/01/25 02:13:30;;;;;;;18.08;4.60;;;7.60;99.90;;;;;;5096612;28;20676;-64
2024/01/25 02:15:57;;;;;;;19.27;4.50;;;7.60;99.90;;;;;;5095651;28;20288;-65
2024/01/25 02:18:24;;;;;;;15.00;3.67;;;7.60;99.90;;;;;;5095213;28;20267;-65
2024/01/25 02:20:51;;;;;;;14.95;4.20;;;7.60;99.90;;;;;;5095138;28;20236;-65
2024/01/25 02:23:19;;;;;;;18.90;3.78;;;7.60;99.90;;;;;;5094939;28;20709;-65
2024/01/25 02:25:46;;;;;;;16.75;4.25;;;7.60;99.90;;;;;;5095082;28;20240;-65
2024/01/25 02:28:13;;;;;;;13.30;4.00;;;7.60;99.90;;;;;;5094810;28;20674;-66
2024/01/25 02:30:40;;;;;;;16.25;3.85;;;7.60;99.90;;;;;;5094978;28;20236;-64
2024/01/25 02:33:07;;;;;;;17.55;5.55;;;7.60;99.90;;;;;;5094505;28;20729;-65
2024/01/25 02:35:34;;;;;;;18.08;4.40;;;7.60;99.90;;;;;;5094831;28;20232;-64
2024/01/25 02:38:01;;;;;;;14.95;4.97;;;7.60;99.90;;;;;;5094855;28;20247;-65
2024/01/25 02:40:29;;;;;;;20.17;4.05;;;7.60;99.90;;;;;;5094468;28;20712;-65
2024/01/25 02:42:56;;;;;;;15.80;3.60;;;7.60;99.90;;;;;;5094633;28;20259;-64
2024/01/25 02:45:23;;;;;;;15.65;4.68;;;7.60;99.90;;;;;;5094743;28;20579;-65
2024/01/25 02:47:50;;;;;;;12.70;3.80;;;7.60;99.90;;;;;;5094725;28;20232;-64
2024/01/25 02:50:17;;;;;;;27.27;4.13;;;7.60;99.90;;;;;;5094461;28;20646;-65
2024/01/25 02:52:44;;;;;;;15.82;3.50;;;7.60;99.90;;;;;;5093528;28;20258;-65
2024/01/25 02:55:11;;;;;;;18.10;4.50;;;7.60;99.90;;;;;;5094451;28;20250;-64
2024/01/25 02:57:39;;;;;;;20.75;4.40;;;7.60;99.90;;;;;;5094474;28;20232;-65
2024/01/25 03:00:08;;;;;;;11.95;3.60;;;7.60;99.90;;;;;;5093950;28;20255;-65
2024/01/25 03:02:35;;;;;;;13.35;3.63;;;7.60;99.90;;;;;;5093818;28;20240;-65
2024/01/25 03:05:02;;;;;;;17.02;4.22;;;7.60;99.90;;;;;;5094042;28;20239;-65
2024/01/25 03:07:29;;;;;;;16.30;4.60;;;7.60;99.90;;;;;;5094940;28;20232;-64
2024/01/25 03:09:56;;;;;;;19.67;4.00;;;7.60;99.90;;;;;;5094090;28;20231;-64
2024/01/25 03:12:23;;;;;;;24.35;5.45;;;7.60;99.90;;;;;;5093888;28;20693;-64
2024/01/25 03:14:51;;;;;;;20.00;3.90;;;7.60;99.90;;;;;;5094323;28;20232;-65
2024/01/25 03:17:18;;;;;;;12.43;3.60;;;7.60;99.90;;;;;;5094422;28;20254;-64
2024/01/25 03:19:45;;;;;;;21.95;4.68;;;7.60;99.90;;;;;;5093996;28;20267;-64
2024/01/25 03:22:12;;;;;;;20.38;3.90;;;7.60;99.90;;;;;;5093903;28;20255;-64
2024/01/25 03:24:39;;;;;;;16.38;4.38;;;7.60;99.90;;;;;;5093913;28;20231;-64
2024/01/25 03:27:12;;;;;;;14.48;3.90;;;7.60;99.90;;;;;;5093817;28;20206;-64
2024/01/25 03:29:41;;;;;;;9.48;3.03;;;7.60;99.90;;;;;;5093598;28;20662;-64
2024/01/25 03:32:09;;;;;;;14.18;3.33;;;7.60;99.90;;;;;;5093371;28;20255;-65
2024/01/25 03:34:36;;;;;;;23.83;4.30;;;7.60;99.90;;;;;;5093440;28;20236;-65
2024/01/25 03:37:03;;;;;;;21.55;3.78;;;7.60;99.90;;;;;;5093669;28;20686;-65
2024/01/25 03:39:30;;;;;;;15.68;2.72;;;7.50;99.90;;;;;;5093429;28;20259;-65
2024/01/25 03:41:57;;;;;;;15.35;4.95;;;7.50;99.90;;;;;;5093571;28;20755;-65
2024/01/25 03:44:24;;;;;;;31.70;4.72;;;7.60;99.90;;;;;;5093700;28;20227;-64
2024/01/25 03:46:51;;;;;;;16.70;4.35;;;7.60;99.90;;;;;;5093840;28;20208;-64
2024/01/25 03:49:22;;;;;;;9.07;2.72;;;7.50;99.90;;;;;;5093537;28;20239;-64
2024/01/25 03:51:49;;;;;;;13.20;3.80;;;7.50;99.90;;;;;;5093570;28;20306;-65
2024/01/25 03:54:16;;;;;;;20.20;3.85;;;7.50;99.90;;;;;;5093248;28;20677;-64
2024/01/25 03:56:43;;;;;;;16.00;4.10;;;7.50;99.90;;;;;;5093592;28;20636;-66
2024/01/25 03:59:13;;;;;;;13.90;4.10;;;7.50;99.90;;;;;;5093611;28;20251;-64
2024/01/25 04:01:44;;;;;;;12.30;3.67;;;7.50;99.90;;;;;;5092915;28;20710;-64
2024/01/25 04:04:12;;;;;;;15.18;3.80;;;7.40;99.90;;;;;;5092854;28;20261;-64
2024/01/25 04:06:43;;;;;;;9.63;3.10;;;7.40;99.90;;;;;;5093150;28;20207;-65
2024/01/25 04:09:10;;;;;;;15.30;3.90;;;7.40;99.90;;;;;;5093490;28;20267;-65
2024/01/25 04:13:04;;;;;;;16.10;4.35;;;7.40;99.90;;;;;;5091060;28;21050;-64
2024/01/25 04:15:31;;;;;;;19.15;4.00;;;7.40;99.90;;;;;;5090863;28;20235;-65
2024/01/25 04:17:58;;;;;;;31.23;6.55;;;7.40;99.90;;;;;;5090796;28;20232;-64
2024/01/25 04:20:25;;;;;;;11.52;3.25;;;7.30;99.90;;;;;;5090850;28;20236;-66
2024/01/25 04:22:52;;;;;;;15.23;3.08;;;7.30;99.90;;;;;;5090724;28;20220;-64
2024/01/25 04:25:18;;;;;;;9.02;4.18;;;7.30;99.90;;;;;;5090499;28;20205;-65
2024/01/25 04:27:45;;;;;;;21.20;5.43;;;7.30;99.90;;;;;;5090881;28;20228;-64
2024/01/25 04:30:14;;;;;;;11.68;2.95;;;7.30;99.90;;;;;;5090745;28;20239;-65
2024/01/25 04:32:41;;;;;;;20.05;4.20;;;7.20;99.90;;;;;;5090808;28;20263;-65
2024/01/25 04:35:09;;;;;;;19.10;3.80;;;7.20;99.90;;;;;;5090756;28;20203;-65
2024/01/25 04:40:58;;;;;;;15.38;3.40;;;7.20;99.90;;;;;;5090638;28;20210;-65
2024/01/25 04:43:25;;;;;;;13.10;4.15;;;7.10;99.90;;;;;;5095279;28;20196;-66
2024/01/25 04:45:53;;;;;;;12.55;4.30;;;7.10;99.90;;;;;;5102238;28;20203;-64
2024/01/25 04:48:20;;;;;;;13.15;4.35;;;7.10;99.90;;;;;;5104002;28;20288;-65
2024/01/25 04:50:46;;;;;;;10.98;3.65;;;7.10;99.90;;;;;;5091841;28;20207;-65
2024/01/25 04:53:13;;;;;;;24.15;4.20;;;7.10;99.90;;;;;;5090774;28;20196;-65
2024/01/25 04:55:40;;;;;;;26.42;5.03;;;7.00;99.90;;;;;;5090477;28;20536;-65
2024/01/25 04:58:07;;;;;;;18.50;3.78;;;7.00;99.90;;;;;;5090134;28;20201;-65
2024/01/25 05:00:39;;;;;;;14.35;4.18;;;7.00;99.90;;;;;;5090215;28;20211;-63
2024/01/25 05:03:08;;;;;;;21.42;4.00;;;7.00;99.90;;;;;;5090136;28;20223;-65
2024/01/25 05:05:34;;;;;;;20.08;4.30;;;7.00;99.90;;;;;;5090098;28;20208;-65
2024/01/25 05:08:01;;;;;;;12.55;4.18;;;7.00;99.90;;;;;;5090069;28;20200;-63
2024/01/25 05:10:28;;;;;;;20.40;4.07;;;6.90;99.90;;;;;;5090225;28;20196;-63
2024/01/25 05:12:54;;;;;;;21.20;4.53;;;6.90;99.90;;;;;;5089805;28;20233;-65
2024/01/25 05:15:21;;;;;;;20.08;5.03;;;6.90;99.90;;;;;;5090021;28;20196;-64
2024/01/25 05:17:48;;;;;;;20.35;3.92;;;6.80;99.90;;;;;;5089919;28;20207;-65
2024/01/25 05:20:17;;;;;;;14.30;4.18;;;6.80;99.90;;;;;;5090080;28;20204;-64
2024/01/25 05:22:45;;;;;;;11.98;3.58;;;6.80;99.90;;;;;;5085334;28;20778;-64
2024/01/25 05:25:12;;;;;;;20.73;4.75;;;6.80;99.90;;;;;;5076666;28;20205;-63
2024/01/25 05:27:39;;;;;;;14.57;3.60;;;6.80;99.90;;;;;;5076440;28;20546;-64
2024/01/25 05:30:10;;;;;;;20.15;4.72;;;6.80;99.90;;;;;;5077492;28;20552;-63
2024/01/25 05:32:36;;;;;;;10.18;4.65;;;6.70;99.90;;;;;;5083031;28;20232;-64
2024/01/25 05:35:04;;;;;;;10.50;3.78;;;6.70;99.90;;;;;;5082430;28;20204;-65
2024/01/25 05:37:33;;;;;;;17.23;4.95;;;6.70;99.90;;;;;;5079786;28;20258;-65
2024/01/25 05:40:00;;;;;;;21.55;4.20;;;6.80;99.90;;;;;;5083888;28;20227;-65
2024/01/25 05:42:27;;;;;;;17.80;4.20;;;6.70;99.90;;;;;;5082370;28;20233;-65
2024/01/25 05:44:53;;;;;;;19.83;3.80;;;6.70;99.90;;;;;;5092474;28;20203;-65
2024/01/25 05:47:20;;;;;;;18.55;3.67;;;6.70;99.90;;;;;;5091682;28;20212;-65
2024/01/25 05:49:47;;;;;;;13.02;5.05;;;6.70;99.90;;;;;;5086026;28;20227;-64
2024/01/25 05:52:14;;;;;;;13.00;3.45;;;6.70;99.90;;;;;;5075687;28;20220;-65
2024/01/25 05:54:43;;;;;;;13.85;2.75;;;6.70;99.90;;;;;;5075647;28;20671;-65
2024/01/25 05:57:10;;;;;;;10.52;2.60;;;6.70;99.90;;;;;;5075911;28;20201;-64
2024/01/25 05:59:37;;;;;;;10.45;3.63;;;6.70;99.90;;;;;;5075752;28;20208;-65
2024/01/25 06:02:04;;;;;;;9.95;2.63;;;6.70;99.90;;;;;;5076955;28;20760;-69
2024/01/25 06:04:31;;;;;;;12.13;3.05;;;6.70;99.90;;;;;;5076834;28;20213;-65
2024/01/25 06:06:57;;;;;;;15.30;3.22;;;6.70;99.90;;;;;;5076783;28;20591;-64
2024/01/25 06:09:25;;;;;;;12.20;3.35;;;6.70;99.90;;;;;;5076247;28;20671;-65
2024/01/25 06:11:53;;;;;;;15.98;3.70;;;6.60;99.90;;;;;;5076368;28;20755;-65
2024/01/25 06:14:20;;;;;;;8.98;3.13;;;6.60;99.90;;;;;;5076638;28;20197;-65
2024/01/25 06:16:47;;;;;;;15.05;3.55;;;6.60;99.90;;;;;;5076816;28;20205;-64
2024/01/25 06:19:14;;;;;;;22.63;5.57;;;6.50;99.90;;;;;;5076209;28;20222;-63
2024/01/25 06:21:41;;;;;;;14.60;4.25;;;6.50;99.90;;;;;;5076207;28;20728;-64
2024/01/25 06:24:08;;;;;;;17.90;3.40;;;6.50;99.90;;;;;;5075517;28;20670;-64
2024/01/25 06:26:34;;;;;;;14.40;3.42;;;6.50;99.90;;;;;;5075458;28;20690;-64
2024/01/25 06:29:02;;;;;;;12.50;3.45;;;6.50;99.90;;;;;;5075545;28;20570;-64
2024/01/25 06:31:29;;;;;;;12.05;3.47;;;6.60;99.90;;;;;;5075977;28;20224;-65
2024/01/25 06:33:56;;;;;;;15.18;3.40;;;6.50;99.90;;;;;;5077029;28;20213;-64
2024/01/25 06:36:23;;;;;;;25.17;4.75;;;6.60;99.90;;;;;;5076301;28;20248;-65
2024/01/25 06:38:50;;;;;;;16.15;3.85;;;6.60;99.90;;;;;;5076625;28;20254;-64
2024/01/25 06:41:17;;;;;;;12.40;3.95;;;6.60;99.90;;;;;;5076695;28;20221;-64
2024/01/25 06:43:44;;;;;;;16.80;4.40;;;6.60;99.90;;;;;;5077291;28;20284;-64
2024/01/25 06:46:12;;;;;;;16.23;4.80;;;6.60;99.90;;;;;;5076070;28;20209;-64
2024/01/25 06:48:39;;;;;;;19.90;4.35;;;6.60;99.90;;;;;;5075420;28;20197;-65
2024/01/25 06:51:06;;;;;;;23.38;4.60;;;6.60;99.90;;;;;;5074969;28;20741;-65
2024/01/25 06:53:32;;;;;;;17.50;4.22;;;6.60;99.90;;;;;;5075818;28;20224;-65
2024/01/25 06:55:59;;;;;;;13.65;4.05;;;6.60;99.90;;;;;;5075913;28;20201;-64
2024/01/25 06:58:26;;;;;;;12.45;3.60;;;6.60;99.90;;;;;;5075848;28;20224;-64
2024/01/25 07:00:53;;;;;;;19.98;5.32;;;6.50;99.90;;;;;;5077818;28;20200;-64
2024/01/25 07:03:21;;;;;;;20.60;3.92;;;6.50;99.90;;;;;;5075971;28;20205;-64
2024/01/25 07:05:48;;;;;;;13.82;4.65;;;6.50;99.90;;;;;;5076231;28;20258;-63
2024/01/25 07:08:15;;;;;;;13.00;3.47;;;6.40;99.90;;;;;;5080339;28;20213;-64
2024/01/25 07:10:42;;;;;;;13.55;4.45;;;6.40;99.90;;;;;;5076807;28;20240;-63
2024/01/25 07:13:09;;;;;;;16.00;4.47;;;6.40;99.90;;;;;;5076139;28;20227;-65
2024/01/25 07:15:36;;;;;;;14.57;3.58;;;6.40;99.90;;;;;;5089287;28;20213;-63
2024/01/25 07:18:03;;;;;;;16.17;3.95;;;6.40;99.90;;;;;;5090457;28;20256;-65
2024/01/25 07:20:31;;;;;;;19.20;4.38;;;6.40;99.90;;;;;;5078251;28;20205;-64
2024/01/25 07:22:58;;;;;;;12.70;5.13;;;6.40;99.90;;;;;;5075859;28;20213;-65
2024/01/25 07:25:25;;;;;;;14.55;3.65;;;6.40;99.90;;;;;;5079169;28;20205;-65
2024/01/25 07:27:52;;;;;;;19.05;5.63;;;6.40;99.90;;;;;;5075030;28;20586;-64
2024/01/25 07:30:18;;;;;;;18.67;3.90;;;6.40;99.90;;;;;;5074597;28;20201;-65
2024/01/25 07:32:46;;;;;;;16.35;4.28;;;6.40;99.90;;;;;;5074284;28;20237;-65
2024/01/25 07:35:13;;;;;;;21.05;4.80;;;6.40;99.90;;;;;;5075042;28;20235;-65
2024/01/25 07:37:41;;;;;;;20.67;5.40;;;6.40;99.90;;;;;;5074196;28;20688;-65
2024/01/25 07:40:09;;;;;;;18.63;3.92;;;6.40;99.90;;;;;;5073905;28;20583;-64
2024/01/25 07:42:36;;;;;;;15.40;4.50;;;6.50;99.90;;;;;;5074214;28;20213;-66
2024/01/25 07:45:04;;;;;;;18.13;4.07;;;6.40;99.90;;;;;;5074720;28;20208;-64
2024/01/25 07:47:30;;;;;;;21.30;4.30;;;6.50;99.90;;;;;;5074095;28;20239;-65
2024/01/25 07:49:57;;;;;;;21.13;5.53;;;6.50;99.90;;;;;;5074287;28;20205;-64
2024/01/25 07:52:24;;;;;;;12.10;3.63;;;6.50;99.90;;;;;;5074156;28;20221;-63
2024/01/25 07:54:53;;;;;;;10.77;3.78;;;6.50;99.90;;;;;;5074363;28;20209;-64
2024/01/25 07:57:20;;;;;;;16.45;3.40;;;6.60;99.90;;;;;;5075017;28;20197;-64
2024/01/25 07:59:46;;;;;;;16.88;5.57;;;6.60;99.90;;;;;;5074888;28;20280;-63
2024/01/25 08:02:14;;;;;;;16.98;4.78;;;6.60;99.90;;;;;;5074788;28;20216;-64
2024/01/25 08:04:40;;;;;;;9.15;3.90;;;6.60;99.90;;;;;;5074206;28;20209;-64
2024/01/25 08:07:08;;;;;;;15.00;4.13;;;6.60;99.90;;;;;;5074516;28;20205;-65
2024/01/25 08:09:35;;;;;;;18.60;4.40;;;6.60;99.90;;;;;;5074690;28;20604;-63
2024/01/25 08:12:03;;;;;;;16.20;5.45;;;6.60;99.90;;;;;;5074019;28;20718;-64
2024/01/25 08:14:31;;;;;;;11.60;3.38;;;6.60;99.90;;;;;;5074099;28;20646;-65
2024/01/25 08:16:58;;;;;;;22.02;5.05;;;6.70;99.90;;;;;;5075311;28;20208;-64
2024/01/25 08:19:25;;;;;;;21.42;4.85;;;6.60;99.90;;;;;;5074860;28;20209;-65
2024/01/25 08:21:52;;;;;;;14.40;4.65;;;6.60;99.90;;;;;;5074718;28;20766;-64
2024/01/25 08:24:18;;;;;;;18.13;4.13;;;6.60;99.90;;;;;;5075094;28;20205;-65
2024/01/25 08:26:45;;;;;;;16.65;4.60;;;6.60;99.90;;;;;;5074795;28;20209;-65
2024/01/25 08:29:13;;;;;;;16.98;4.32;;;6.60;99.90;;;;;;5074642;28;20207;-65
2024/01/25 08:31:40;;;;;;;16.20;4.30;;;6.70;99.90;;;;;;5074451;28;20227;-64
2024/01/25 08:34:07;;;;;;;19.45;7.28;;;6.60;99.90;;;;;;5074136;28;20220;-64
2024/01/25 08:36:33;;;;;;;11.15;4.35;;;6.70;99.90;;;;;;5074979;28;20601;-65
2024/01/25 08:39:00;;;;;;;23.00;5.95;;;6.70;99.90;;;;;;5075653;28;20296;-66
2024/01/25 08:41:28;;;;;;;19.77;4.88;;;6.70;99.90;;;;;;5075535;28;20216;-66
2024/01/25 08:43:55;;;;;;;21.60;5.00;;;6.80;99.90;;;;;;5075968;28;20576;-65
2024/01/25 08:46:23;;;;;;;10.02;3.70;;;6.80;99.90;;;;;;5075868;28;20686;-65
2024/01/25 08:48:49;;;;;;;15.43;4.90;;;6.80;99.90;;;;;;5075856;28;20283;-66
2024/01/25 08:51:16;;;;;;;17.88;5.63;;;6.80;99.90;;;;;;5075062;28;20282;-64
2024/01/25 08:53:43;;;;;;;19.52;4.65;;;6.80;99.90;;;;;;5074919;28;20217;-66
2024/01/25 08:56:10;;;;;;;13.43;4.82;;;6.80;99.90;;;;;;5074343;28;20689;-65
2024/01/25 08:58:37;;;;;;;17.17;4.30;;;6.80;99.90;;;;;;5076519;28;20205;-66
2024/01/25 09:01:03;;;;;;;13.00;4.28;;;6.90;99.90;;;;;;5078631;28;20211;-64
2024/01/25 09:03:32;;;;;;;15.75;5.05;;;6.90;99.90;;;;;;5080025;28;20571;-67
2024/01/25 09:06:04;;;;;;;21.65;7.93;;;6.90;99.90;;;;;;5080737;28;20205;-65
2024/01/25 09:08:31;;;;;;;13.93;4.65;;;6.90;99.90;;;;;;5081375;28;20189;-65
2024/01/25 09:10:58;;;;;;;14.80;4.40;;;7.00;99.90;;;;;;5085398;28;20266;-65
2024/01/25 09:13:25;;;;;;;21.52;4.07;;;7.00;99.90;;;;;;5084174;28;20208;-66
2024/01/25 09:15:52;;;;;;;19.35;5.38;;;7.00;99.90;;;;;;5088899;28;20207;-64
2024/01/25 09:18:19;;;;;;;16.70;4.90;;;7.00;99.90;;;;;;5085433;28;20205;-66
2024/01/25 09:20:48;;;;;;;22.38;5.60;;;7.00;99.90;;;;;;5083902;28;20229;-67
2024/01/25 09:23:16;;;;;;;20.92;5.28;;;7.10;99.90;;;;;;5085761;28;20212;-65
2024/01/25 09:25:43;;;;;;;23.83;5.28;;;7.10;99.90;;;;;;5085312;28;20207;-65
2024/01/25 09:28:11;;;;;;;13.63;4.78;;;7.10;99.90;;;;;;5081988;28;20205;-65
2024/01/25 09:30:38;;;;;;;19.67;4.93;;;7.10;99.90;;;;;;5081091;28;20212;-65
2024/01/25 09:33:05;;;;;;;17.25;5.05;;;7.10;99.90;;;;;;5082054;28;20227;-65
2024/01/25 09:35:32;;;;;;;11.88;4.10;;;7.10;99.90;;;;;;5081208;28;20580;-65
2024/01/25 09:38:00;;;;;;;19.45;4.97;;;7.00;99.90;;;;;;5081345;28;20573;-65
2024/01/25 09:40:27;;;;;;;17.33;5.50;;;7.00;99.90;;;;;;5077048;28;20200;-65
2024/01/25 09:42:54;;;;;;;13.15;5.72;;;7.10;99.90;;;;;;5079268;28;20221;-65
2024/01/25 09:45:21;;;;;;;19.10;4.93;;;7.10;99.90;;;;;;5079426;28;20212;-66
2024/01/25 09:47:48;;;;;;;21.17;5.93;;;7.10;99.90;;;;;;5080730;28;20286;-64
2024/01/25 09:50:15;;;;;;;22.55;6.85;;;7.20;99.90;;;;;;5089131;28;20201;-65
2024/01/25 09:52:44;;;;;;;17.48;5.35;;;7.20;99.90;;;;;;5091585;28;20229;-63
2024/01/25 09:55:14;;;;;;;21.90;5.43;;;7.20;99.90;;;;;;5084651;28;20200;-64
2024/01/25 09:57:42;;;;;;;12.90;4.93;;;7.30;99.90;;;;;;5081237;28;20208;-65
2024/01/25 10:00:11;;;;;;;22.88;4.72;;;7.30;99.90;;;;;;5080509;28;20204;-63
2024/01/25 10:02:38;;;;;;;15.35;4.18;;;7.40;99.90;;;;;;5079233;28;20217;-65
2024/01/25 10:05:05;;;;;;;18.13;4.35;;;7.50;99.90;;;;;;5079811;28;20201;-64
2024/01/25 10:07:37;;;;;;;15.68;5.32;;;7.50;99.90;;;;;;5078807;28;20269;-64
2024/01/25 10:10:05;;;;;;;19.60;5.10;;;7.50;99.90;;;;;;5078026;28;20621;-66
2024/01/25 10:12:33;;;;;;;16.15;4.05;;;7.50;99.90;;;;;;5078240;28;20718;-65
2024/01/25 10:15:00;;;;;;;18.13;4.35;;;7.60;99.90;;;;;;5077940;28;20583;-66
2024/01/25 10:17:28;;;;;;;13.60;4.93;;;7.60;99.90;;;;;;5078016;28;20201;-65
2024/01/25 10:19:55;;;;;;;19.52;4.63;;;7.60;99.90;;;;;;5077422;28;20201;-65
2024/01/25 10:22:22;;;;;;;20.55;6.00;;;7.60;99.90;;;;;;5078128;28;20233;-64
2024/01/25 10:24:50;;;;;;;16.85;5.03;;;7.70;99.90;;;;;;5078215;28;20225;-64
2024/01/25 10:27:18;;;;;;;10.43;3.83;;;7.70;99.90;;;;;;5077608;28;20205;-64
2024/01/25 10:29:46;;;;;;;16.73;4.97;;;7.70;99.90;;;;;;5079453;28;20215;-65
2024/01/25 10:32:13;;;;;;;16.83;4.03;;;7.80;99.90;;;;;;5079330;28;20217;-65
2024/01/25 10:34:40;;;;;;;14.80;4.28;;;7.80;99.90;;;;;;5079935;28;20550;-65
2024/01/25 10:37:08;;;;;;;23.52;5.05;;;7.80;99.90;;;;;;5081361;28;20255;-66
2024/01/25 10:39:35;;;;;;;14.02;4.20;;;7.80;99.90;;;;;;5085425;28;20283;-65
2024/01/25 10:42:02;;;;;;;20.25;4.85;;;7.80;99.90;;;;;;5089795;28;20221;-65
2024/01/25 10:44:29;;;;;;;24.63;5.10;;;7.90;99.90;;;;;;5091105;28;20220;-65
2024/01/25 10:46:57;;;;;;;17.15;4.38;;;7.90;99.90;;;;;;5088310;28;20205;-66
2024/01/25 10:49:25;;;;;;;15.00;4.60;;;8.00;99.90;;;;;;5085902;28;20203;-66
2024/01/25 10:51:53;;;;;;;16.38;5.35;;;8.10;99.90;;;;;;5083398;28;20231;-64
2024/01/25 10:54:20;;;;;;;16.85;4.63;;;8.10;99.90;;;;;;5079194;28;20384;-66
2024/01/25 10:56:48;;;;;;;17.88;5.05;;;8.00;99.90;;;;;;5078903;28;20692;-65
2024/01/25 10:59:16;;;;;;;21.42;5.85;;;7.90;99.90;;;;;;5079138;28;20209;-66
2024/01/25 11:01:45;;;;;;;15.35;4.65;;;7.80;99.90;;;;;;5078530;28;20247;-64
2024/01/25 11:04:17;;;;;;;18.05;5.35;;;7.70;99.90;;;;;;5078267;28;20193;-65
2024/01/25 11:06:45;;;;;;;12.98;4.55;;;7.70;99.90;;;;;;5078914;28;20201;-65
2024/01/25 11:09:18;;;;;;;13.38;4.45;;;7.70;99.90;;;;;;5078741;28;20547;-63
2024/01/25 11:11:46;;;;;;;16.95;5.25;;;7.70;99.90;;;;;;5078730;28;20235;-66
2024/01/25 11:14:14;;;;;;;20.70;6.10;;;7.60;99.90;;;;;;5078377;28;20224;-65
2024/01/25 11:16:44;;;;;;;22.73;6.13;;;7.70;99.90;;;;;;5077280;28;20200;-66
2024/01/25 11:19:19;;;;;;;18.00;4.80;;;7.60;99.90;;;;;;5081102;28;20262;-65
2024/01/25 11:21:47;;;;;;;14.00;5.47;;;7.70;99.90;;;;;;5081611;28;20220;-66
2024/01/25 11:24:15;;;;;;;17.17;5.90;;;7.70;99.90;;;;;;5078955;28;20235;-65
2024/01/25 11:26:44;;;;;;;18.02;4.35;;;7.70;99.90;;;;;;5080870;28;20680;-66
2024/01/25 11:29:11;;;;;;;18.90;4.95;;;7.70;99.90;;;;;;5080977;28;20205;-65
2024/01/25 11:31:37;;;;;;;13.50;4.55;;;7.70;99.90;;;;;;5081307;28;20255;-65
2024/01/25 11:34:04;;;;;;;17.25;4.70;;;7.70;99.90;;;;;;5080817;28;20223;-65
2024/01/25 11:36:32;;;;;;;24.77;6.22;;;7.60;99.90;;;;;;5078680;28;20197;-64
2024/01/25 11:38:59;;;;;;;21.25;5.32;;;7.60;99.90;;;;;;5082120;28;20693;-64
2024/01/25 11:41:26;;;;;;;14.82;5.30;;;7.50;99.90;;;;;;5079841;28;20221;-68
2024/01/25 11:43:53;;;;;;;11.88;4.38;;;7.50;99.90;;;;;;5078614;28;20203;-65
2024/01/25 11:46:20;;;;;;;14.90;5.43;;;7.60;99.90;;;;;;5078572;28;20554;-65
2024/01/25 11:48:47;;;;;;;12.35;5.30;;;7.70;99.90;;;;;;5078062;28;20207;-66
2024/01/25 11:51:14;;;;;;;16.13;4.95;;;7.80;99.90;;;;;;5078721;28;20706;-69
2024/01/25 11:53:42;;;;;;;15.02;4.93;;;7.90;99.90;;;;;;5079381;28;20217;-65
2024/01/25 11:56:11;;;;;;;16.48;4.50;;;8.10;99.90;;;;;;5079169;28;20284;-66
2024/01/25 11:58:39;;;;;;;10.75;3.75;;;8.10;99.90;;;;;;5079167;28;20203;-66
2024/01/25 12:01:07;;;;;;;16.77;4.40;;;8.10;99.90;;;;;;5078896;28;20316;-64
2024/01/25 12:03:36;;;;;;;14.68;4.82;;;8.10;99.90;;;;;;5080101;28;20274;-65
2024/01/25 12:06:04;;;;;;;21.58;5.43;;;8.10;99.90;;;;;;5079625;28;20283;-65
2024/01/25 12:08:32;;;;;;;14.70;4.75;;;8.00;99.90;;;;;;5078758;28;20201;-65
2024/01/25 12:11:07;;;;;;;17.60;4.55;;;8.00;99.90;;;;;;5077698;28;20219;-65
2024/01/25 12:13:35;;;;;;;15.32;4.70;;;7.90;99.90;;;;;;5078563;28;20247;-66
2024/01/25 12:16:03;;;;;;;19.33;5.35;;;7.80;99.90;;;;;;5077672;28;20208;-66
2024/01/25 12:18:32;;;;;;;15.10;5.38;;;7.80;99.90;;;;;;5078508;28;20196;-66
2024/01/25 12:21:02;;;;;;;14.95;5.00;;;7.80;99.90;;;;;;5077431;28;20288;-65
2024/01/25 12:23:33;;;;;;;12.55;4.72;;;7.90;99.90;;;;;;5082052;28;20265;-66
2024/01/25 12:26:01;;;;;;;10.77;3.90;;;8.00;99.90;;;;;;5088077;28;20188;-64
2024/01/25 12:28:32;;;;;;;13.68;4.35;;;8.20;99.90;;;;;;5089842;28;20205;-65
2024/01/25 12:30:59;;;;;;;14.27;4.07;;;8.20;99.90;;;;;;5088038;28;20189;-65
2024/01/25 12:33:26;;;;;;;17.73;4.55;;;8.30;99.90;;;;;;5091522;28;20268;-64
2024/01/25 12:35:54;;;;;;;9.75;3.42;;;8.30;99.90;;;;;;5095460;28;20712;-64
2024/01/25 12:38:21;;;;;;;16.80;4.32;;;8.30;99.90;;;;;;5095371;28;20219;-66
2024/01/25 12:40:49;;;;;;;12.00;4.20;;;8.20;99.90;;;;;;5093905;28;20654;-66
2024/01/25 12:43:16;;;;;;;11.75;3.80;;;8.20;99.90;;;;;;5094407;28;20205;-64
2024/01/25 12:45:45;;;;;;;11.10;4.07;;;8.20;99.90;;;;;;5089549;28;20233;-65
2024/01/25 12:48:12;;;;;;;11.57;4.78;;;8.30;99.90;;;;;;5084347;28;20207;-65
2024/01/25 12:50:39;;;;;;;14.43;5.25;;;8.30;99.90;;;;;;5081358;28;20209;-66
2024/01/25 12:53:06;;;;;;;15.23;6.90;;;8.30;99.90;;;;;;5081147;28;20269;-65